sensor_id;sensor_type;location;lat;lon;timestamp;temperature;humidity
38480;DHT22;62333;51.980;5.934;2023-05-10T00:01:42;16.00;94.90
38480;DHT22;62333;51.980;5.934;2023-05-10T00:04:08;15.90;94.80
38480;DHT22;62333;51.980;5.934;2023-05-10T00:06:33;15.90;94.80
38480;DHT22;62333;51.980;5.934;2023-05-10T00:08:59;15.90;94.90
38480;DHT22;62333;51.980;5.934;2023-05-10T00:11:25;15.90;94.90
38480;DHT22;62333;51.980;5.934;2023-05-10T00:13:50;15.90;94.90
38480;DHT22;62333;51.980;5.934;2023-05-10T00:16:16;15.90;94.90
38480;DHT22;62333;51.980;5.934;2023-05-10T00:18:42;15.90;94.90
38480;DHT22;62333;51.980;5.934;2023-05-10T00:21:07;15.90;94.90
38480;DHT22;62333;51.980;5.934;2023-05-10T00:23:33;15.90;94.90
38480;DHT22;62333;51.980;5.934;2023-05-10T00:25:59;15.90;94.90
38480;DHT22;62333;51.980;5.934;2023-05-10T00:28:24;15.90;94.90
38480;DHT22;62333;51.980;5.934;2023-05-10T00:30:50;15.90;94.90
38480;DHT22;62333;51.980;5.934;2023-05-10T00:33:15;15.90;94.90
38480;DHT22;62333;51.980;5.934;2023-05-10T00:35:41;15.90;94.90
38480;DHT22;62333;51.980;5.934;2023-05-10T00:38:07;15.90;94.90
38480;DHT22;62333;51.980;5.934;2023-05-10T00:40:33;15.90;95.20
38480;DHT22;62333;51.980;5.934;2023-05-10T00:42:58;15.90;95.20
38480;DHT22;62333;51.980;5.934;2023-05-10T00:45:26;16.00;95.00
38480;DHT22;62333;51.980;5.934;2023-05-10T00:47:52;16.00;95.00
38480;DHT22;62333;51.980;5.934;2023-05-10T00:50:24;16.00;95.00
38480;DHT22;62333;51.980;5.934;2023-05-10T00:52:50;16.00;95.00
38480;DHT22;62333;51.980;5.934;2023-05-10T00:55:15;16.00;95.00
38480;DHT22;62333;51.980;5.934;2023-05-10T00:57:41;16.00;95.00
38480;DHT22;62333;51.980;5.934;2023-05-10T01:00:08;15.90;95.00
38480;DHT22;62333;51.980;5.934;2023-05-10T01:02:35;15.90;95.00
38480;DHT22;62333;51.980;5.934;2023-05-10T01:05:02;16.00;95.00
38480;DHT22;62333;51.980;5.934;2023-05-10T01:07:29;15.90;95.00
38480;DHT22;62333;51.980;5.934;2023-05-10T01:09:55;16.00;95.10
38480;DHT22;62333;51.980;5.934;2023-05-10T01:12:21;15.90;95.00
38480;DHT22;62333;51.980;5.934;2023-05-10T01:14:48;15.90;95.00
38480;DHT22;62333;51.980;5.934;2023-05-10T01:17:13;15.90;95.10
38480;DHT22;62333;51.980;5.934;2023-05-10T01:19:40;15.90;95.10
38480;DHT22;62333;51.980;5.934;2023-05-10T01:36:09;15.80;95.20
38480;DHT22;62333;51.980;5.934;2023-05-10T01:38:43;15.80;95.20
38480;DHT22;62333;51.980;5.934;2023-05-10T01:46:28;15.80;95.20
38480;DHT22;62333;51.980;5.934;2023-05-10T01:48:58;15.90;95.30
38480;DHT22;62333;51.980;5.934;2023-05-10T01:51:29;15.90;95.30
38480;DHT22;62333;51.980;5.934;2023-05-10T01:54:01;15.90;95.30
38480;DHT22;62333;51.980;5.934;2023-05-10T01:56:30;15.90;95.30
38480;DHT22;62333;51.980;5.934;2023-05-10T01:58:58;15.80;95.30
38480;DHT22;62333;51.980;5.934;2023-05-10T02:01:26;15.90;95.30
38480;DHT22;62333;51.980;5.934;2023-05-10T02:03:53;15.90;95.30
38480;DHT22;62333;51.980;5.934;2023-05-10T02:06:21;15.90;95.30
38480;DHT22;62333;51.980;5.934;2023-05-10T02:08:49;15.90;95.30
38480;DHT22;62333;51.980;5.934;2023-05-10T02:11:18;15.90;95.40
38480;DHT22;62333;51.980;5.934;2023-05-10T02:13:47;15.90;95.40
38480;DHT22;62333;51.980;5.934;2023-05-10T02:16:16;15.90;95.40
38480;DHT22;62333;51.980;5.934;2023-05-10T02:18:42;15.90;95.40
38480;DHT22;62333;51.980;5.934;2023-05-10T02:21:09;15.80;95.40
38480;DHT22;62333;51.980;5.934;2023-05-10T02:23:36;15.90;95.50
38480;DHT22;62333;51.980;5.934;2023-05-10T02:26:03;15.90;95.50
38480;DHT22;62333;51.980;5.934;2023-05-10T02:28:31;15.80;95.40
38480;DHT22;62333;51.980;5.934;2023-05-10T02:30:58;15.80;95.50
38480;DHT22;62333;51.980;5.934;2023-05-10T02:33:25;15.90;95.50
38480;DHT22;62333;51.980;5.934;2023-05-10T02:35:52;15.80;95.50
38480;DHT22;62333;51.980;5.934;2023-05-10T02:38:20;15.90;95.50
38480;DHT22;62333;51.980;5.934;2023-05-10T02:40:47;15.90;95.50
38480;DHT22;62333;51.980;5.934;2023-05-10T02:43:15;15.90;95.50
38480;DHT22;62333;51.980;5.934;2023-05-10T02:45:43;15.90;95.50
38480;DHT22;62333;51.980;5.934;2023-05-10T02:48:09;15.80;95.50
38480;DHT22;62333;51.980;5.934;2023-05-10T02:50:36;15.80;95.70
38480;DHT22;62333;51.980;5.934;2023-05-10T02:53:11;15.90;95.60
38480;DHT22;62333;51.980;5.934;2023-05-10T02:55:38;15.80;95.50
38480;DHT22;62333;51.980;5.934;2023-05-10T02:58:05;15.80;95.50
38480;DHT22;62333;51.980;5.934;2023-05-10T03:00:31;15.80;95.50
38480;DHT22;62333;51.980;5.934;2023-05-10T03:02:57;15.80;95.60
38480;DHT22;62333;51.980;5.934;2023-05-10T03:05:23;15.80;95.60
38480;DHT22;62333;51.980;5.934;2023-05-10T03:07:49;15.70;95.60
38480;DHT22;62333;51.980;5.934;2023-05-10T03:10:16;15.70;95.60
38480;DHT22;62333;51.980;5.934;2023-05-10T03:15:51;15.70;95.60
38480;DHT22;62333;51.980;5.934;2023-05-10T03:18:31;15.70;95.60
38480;DHT22;62333;51.980;5.934;2023-05-10T03:21:03;15.60;95.60
38480;DHT22;62333;51.980;5.934;2023-05-10T03:23:35;15.60;95.60
38480;DHT22;62333;51.980;5.934;2023-05-10T03:26:06;15.60;95.70
38480;DHT22;62333;51.980;5.934;2023-05-10T03:28:34;15.60;95.70
38480;DHT22;62333;51.980;5.934;2023-05-10T03:31:02;15.50;95.70
38480;DHT22;62333;51.980;5.934;2023-05-10T03:33:28;15.50;95.70
38480;DHT22;62333;51.980;5.934;2023-05-10T03:35:54;15.50;95.70
38480;DHT22;62333;51.980;5.934;2023-05-10T03:38:19;15.50;95.70
38480;DHT22;62333;51.980;5.934;2023-05-10T03:40:45;15.40;95.70
38480;DHT22;62333;51.980;5.934;2023-05-10T03:43:11;15.50;95.70
38480;DHT22;62333;51.980;5.934;2023-05-10T03:45:36;15.50;95.60
38480;DHT22;62333;51.980;5.934;2023-05-10T03:48:02;15.40;95.60
38480;DHT22;62333;51.980;5.934;2023-05-10T03:50:28;15.50;95.60
38480;DHT22;62333;51.980;5.934;2023-05-10T03:52:53;15.40;95.60
38480;DHT22;62333;51.980;5.934;2023-05-10T03:55:19;15.40;95.60
38480;DHT22;62333;51.980;5.934;2023-05-10T03:57:45;15.30;95.60
38480;DHT22;62333;51.980;5.934;2023-05-10T04:00:11;15.30;95.60
38480;DHT22;62333;51.980;5.934;2023-05-10T04:02:37;15.30;95.70
38480;DHT22;62333;51.980;5.934;2023-05-10T04:05:02;15.30;95.70
38480;DHT22;62333;51.980;5.934;2023-05-10T04:07:28;15.30;95.70
38480;DHT22;62333;51.980;5.934;2023-05-10T04:09:54;15.30;95.60
38480;DHT22;62333;51.980;5.934;2023-05-10T04:12:20;15.30;95.60
38480;DHT22;62333;51.980;5.934;2023-05-10T04:14:45;15.30;95.60
38480;DHT22;62333;51.980;5.934;2023-05-10T04:17:11;15.30;95.60
38480;DHT22;62333;51.980;5.934;2023-05-10T04:19:37;15.30;95.50
38480;DHT22;62333;51.980;5.934;2023-05-10T04:22:03;15.40;95.50
38480;DHT22;62333;51.980;5.934;2023-05-10T04:24:28;15.40;95.50
38480;DHT22;62333;51.980;5.934;2023-05-10T04:26:54;15.30;95.50
38480;DHT22;62333;51.980;5.934;2023-05-10T04:29:20;15.30;95.50
38480;DHT22;62333;51.980;5.934;2023-05-10T04:31:46;15.30;95.50
38480;DHT22;62333;51.980;5.934;2023-05-10T04:34:12;15.30;95.50
38480;DHT22;62333;51.980;5.934;2023-05-10T04:36:37;15.30;95.40
38480;DHT22;62333;51.980;5.934;2023-05-10T04:39:04;15.30;95.40
38480;DHT22;62333;51.980;5.934;2023-05-10T04:41:30;15.30;95.40
38480;DHT22;62333;51.980;5.934;2023-05-10T04:43:56;15.30;95.40
38480;DHT22;62333;51.980;5.934;2023-05-10T04:46:22;15.30;95.40
38480;DHT22;62333;51.980;5.934;2023-05-10T04:48:47;15.30;95.40
38480;DHT22;62333;51.980;5.934;2023-05-10T04:51:13;15.20;95.40
38480;DHT22;62333;51.980;5.934;2023-05-10T04:53:39;15.30;95.40
38480;DHT22;62333;51.980;5.934;2023-05-10T04:56:05;15.30;95.40
38480;DHT22;62333;51.980;5.934;2023-05-10T04:58:31;15.30;95.40
38480;DHT22;62333;51.980;5.934;2023-05-10T05:00:56;15.30;95.40
38480;DHT22;62333;51.980;5.934;2023-05-10T05:03:22;15.40;95.40
38480;DHT22;62333;51.980;5.934;2023-05-10T05:05:48;15.40;95.40
38480;DHT22;62333;51.980;5.934;2023-05-10T05:08:14;15.40;95.40
38480;DHT22;62333;51.980;5.934;2023-05-10T05:10:40;15.40;95.40
38480;DHT22;62333;51.980;5.934;2023-05-10T05:13:05;15.40;95.40
38480;DHT22;62333;51.980;5.934;2023-05-10T05:15:31;15.40;95.30
38480;DHT22;62333;51.980;5.934;2023-05-10T05:17:57;15.50;95.40
38480;DHT22;62333;51.980;5.934;2023-05-10T05:20:22;15.40;95.30
38480;DHT22;62333;51.980;5.934;2023-05-10T05:22:48;15.40;95.30
38480;DHT22;62333;51.980;5.934;2023-05-10T05:25:14;15.50;95.40
38480;DHT22;62333;51.980;5.934;2023-05-10T05:27:41;15.40;95.30
38480;DHT22;62333;51.980;5.934;2023-05-10T05:30:07;15.50;95.30
38480;DHT22;62333;51.980;5.934;2023-05-10T05:32:33;15.50;95.30
38480;DHT22;62333;51.980;5.934;2023-05-10T05:34:58;15.50;95.40
38480;DHT22;62333;51.980;5.934;2023-05-10T05:37:24;15.50;95.30
38480;DHT22;62333;51.980;5.934;2023-05-10T05:39:50;15.50;95.30
38480;DHT22;62333;51.980;5.934;2023-05-10T05:42:16;15.50;95.30
38480;DHT22;62333;51.980;5.934;2023-05-10T05:44:43;15.50;95.30
38480;DHT22;62333;51.980;5.934;2023-05-10T05:47:09;15.50;95.30
38480;DHT22;62333;51.980;5.934;2023-05-10T05:49:36;15.50;95.30
38480;DHT22;62333;51.980;5.934;2023-05-10T05:52:02;15.50;95.30
38480;DHT22;62333;51.980;5.934;2023-05-10T05:54:29;15.50;95.30
38480;DHT22;62333;51.980;5.934;2023-05-10T05:56:58;15.60;95.30
38480;DHT22;62333;51.980;5.934;2023-05-10T05:59:24;15.60;95.30
38480;DHT22;62333;51.980;5.934;2023-05-10T06:01:49;15.60;95.30
38480;DHT22;62333;51.980;5.934;2023-05-10T06:04:15;15.60;95.30
38480;DHT22;62333;51.980;5.934;2023-05-10T06:06:41;15.70;95.30
38480;DHT22;62333;51.980;5.934;2023-05-10T06:09:08;15.70;95.20
38480;DHT22;62333;51.980;5.934;2023-05-10T06:11:34;15.70;95.20
38480;DHT22;62333;51.980;5.934;2023-05-10T06:14:00;15.80;95.20
38480;DHT22;62333;51.980;5.934;2023-05-10T06:16:25;15.80;95.50
38480;DHT22;62333;51.980;5.934;2023-05-10T06:18:51;15.80;95.20
38480;DHT22;62333;51.980;5.934;2023-05-10T06:21:17;15.80;95.20
38480;DHT22;62333;51.980;5.934;2023-05-10T06:23:43;15.90;95.20
38480;DHT22;62333;51.980;5.934;2023-05-10T06:26:09;15.80;95.20
38480;DHT22;62333;51.980;5.934;2023-05-10T06:28:35;15.80;95.10
38480;DHT22;62333;51.980;5.934;2023-05-10T06:31:03;15.80;95.40
38480;DHT22;62333;51.980;5.934;2023-05-10T06:33:29;15.80;95.20
38480;DHT22;62333;51.980;5.934;2023-05-10T06:35:55;15.80;95.20
38480;DHT22;62333;51.980;5.934;2023-05-10T06:38:21;15.80;95.20
38480;DHT22;62333;51.980;5.934;2023-05-10T06:40:47;15.80;95.20
38480;DHT22;62333;51.980;5.934;2023-05-10T06:43:12;15.80;95.20
38480;DHT22;62333;51.980;5.934;2023-05-10T06:45:38;15.80;95.20
38480;DHT22;62333;51.980;5.934;2023-05-10T06:48:04;15.80;95.30
38480;DHT22;62333;51.980;5.934;2023-05-10T06:50:29;15.80;95.30
38480;DHT22;62333;51.980;5.934;2023-05-10T06:52:55;15.80;95.30
38480;DHT22;62333;51.980;5.934;2023-05-10T06:55:21;15.80;95.30
38480;DHT22;62333;51.980;5.934;2023-05-10T06:57:47;15.80;95.30
38480;DHT22;62333;51.980;5.934;2023-05-10T07:00:13;15.80;95.30
38480;DHT22;62333;51.980;5.934;2023-05-10T07:02:39;15.80;95.30
38480;DHT22;62333;51.980;5.934;2023-05-10T07:05:05;15.80;95.30
38480;DHT22;62333;51.980;5.934;2023-05-10T07:07:31;15.80;95.30
38480;DHT22;62333;51.980;5.934;2023-05-10T07:09:57;15.80;95.30
38480;DHT22;62333;51.980;5.934;2023-05-10T07:12:23;15.80;95.30
38480;DHT22;62333;51.980;5.934;2023-05-10T07:14:49;15.80;95.30
38480;DHT22;62333;51.980;5.934;2023-05-10T07:17:15;15.80;95.30
38480;DHT22;62333;51.980;5.934;2023-05-10T07:19:41;15.80;95.30
38480;DHT22;62333;51.980;5.934;2023-05-10T07:22:06;15.80;95.20
38480;DHT22;62333;51.980;5.934;2023-05-10T07:24:33;15.80;95.20
38480;DHT22;62333;51.980;5.934;2023-05-10T07:26:59;15.80;95.30
38480;DHT22;62333;51.980;5.934;2023-05-10T07:29:25;15.80;95.30
38480;DHT22;62333;51.980;5.934;2023-05-10T07:31:50;15.70;95.20
38480;DHT22;62333;51.980;5.934;2023-05-10T07:34:16;15.80;95.20
38480;DHT22;62333;51.980;5.934;2023-05-10T07:36:42;15.80;95.20
38480;DHT22;62333;51.980;5.934;2023-05-10T07:39:08;15.80;95.20
38480;DHT22;62333;51.980;5.934;2023-05-10T07:41:33;15.80;95.20
38480;DHT22;62333;51.980;5.934;2023-05-10T07:43:59;15.90;95.20
38480;DHT22;62333;51.980;5.934;2023-05-10T07:46:25;15.90;95.20
38480;DHT22;62333;51.980;5.934;2023-05-10T07:48:51;15.90;95.20
38480;DHT22;62333;51.980;5.934;2023-05-10T07:51:16;16.00;95.30
38480;DHT22;62333;51.980;5.934;2023-05-10T07:53:42;16.00;95.20
38480;DHT22;62333;51.980;5.934;2023-05-10T07:56:22;16.10;95.20
38480;DHT22;62333;51.980;5.934;2023-05-10T07:58:48;16.10;95.20
38480;DHT22;62333;51.980;5.934;2023-05-10T08:01:14;16.10;95.20
38480;DHT22;62333;51.980;5.934;2023-05-10T08:03:40;16.20;95.10
38480;DHT22;62333;51.980;5.934;2023-05-10T08:06:06;16.20;95.10
38480;DHT22;62333;51.980;5.934;2023-05-10T08:08:31;16.20;95.00
38480;DHT22;62333;51.980;5.934;2023-05-10T08:10:57;16.20;95.00
38480;DHT22;62333;51.980;5.934;2023-05-10T08:13:23;16.30;95.00
38480;DHT22;62333;51.980;5.934;2023-05-10T08:15:48;16.30;95.00
38480;DHT22;62333;51.980;5.934;2023-05-10T08:18:14;16.40;95.00
38480;DHT22;62333;51.980;5.934;2023-05-10T08:20:40;16.50;95.00
38480;DHT22;62333;51.980;5.934;2023-05-10T08:23:05;16.60;94.90
38480;DHT22;62333;51.980;5.934;2023-05-10T08:25:31;16.70;94.80
38480;DHT22;62333;51.980;5.934;2023-05-10T08:27:57;16.80;94.70
38480;DHT22;62333;51.980;5.934;2023-05-10T08:30:22;16.80;94.60
38480;DHT22;62333;51.980;5.934;2023-05-10T08:32:48;16.90;94.50
38480;DHT22;62333;51.980;5.934;2023-05-10T08:35:15;17.00;94.20
38480;DHT22;62333;51.980;5.934;2023-05-10T08:37:40;17.00;94.00
38480;DHT22;62333;51.980;5.934;2023-05-10T08:40:06;17.10;93.80
38480;DHT22;62333;51.980;5.934;2023-05-10T08:42:36;17.10;93.80
38480;DHT22;62333;51.980;5.934;2023-05-10T08:45:04;17.20;93.70
38480;DHT22;62333;51.980;5.934;2023-05-10T08:47:30;17.20;93.60
38480;DHT22;62333;51.980;5.934;2023-05-10T08:49:58;17.20;93.50
38480;DHT22;62333;51.980;5.934;2023-05-10T08:52:26;17.20;93.40
38480;DHT22;62333;51.980;5.934;2023-05-10T08:54:53;17.10;93.10
38480;DHT22;62333;51.980;5.934;2023-05-10T08:57:19;17.00;93.10
38480;DHT22;62333;51.980;5.934;2023-05-10T08:59:45;17.00;93.10
38480;DHT22;62333;51.980;5.934;2023-05-10T09:02:13;17.00;93.00
38480;DHT22;62333;51.980;5.934;2023-05-10T09:04:39;17.00;93.00
38480;DHT22;62333;51.980;5.934;2023-05-10T09:07:06;17.00;93.00
38480;DHT22;62333;51.980;5.934;2023-05-10T09:09:33;17.00;92.80
38480;DHT22;62333;51.980;5.934;2023-05-10T09:11:59;17.00;92.70
38480;DHT22;62333;51.980;5.934;2023-05-10T09:14:25;17.00;92.60
38480;DHT22;62333;51.980;5.934;2023-05-10T09:16:53;17.00;92.50
38480;DHT22;62333;51.980;5.934;2023-05-10T09:19:20;17.10;92.30
38480;DHT22;62333;51.980;5.934;2023-05-10T09:21:46;17.20;92.00
38480;DHT22;62333;51.980;5.934;2023-05-10T09:24:12;17.30;91.80
38480;DHT22;62333;51.980;5.934;2023-05-10T09:26:46;17.40;91.70
38480;DHT22;62333;51.980;5.934;2023-05-10T09:29:14;17.60;91.80
38480;DHT22;62333;51.980;5.934;2023-05-10T09:31:48;17.80;91.60
38480;DHT22;62333;51.980;5.934;2023-05-10T09:34:20;17.90;91.20
38480;DHT22;62333;51.980;5.934;2023-05-10T09:36:52;17.90;90.50
38480;DHT22;62333;51.980;5.934;2023-05-10T09:39:18;17.90;90.40
38480;DHT22;62333;51.980;5.934;2023-05-10T09:41:44;17.90;90.40
38480;DHT22;62333;51.980;5.934;2023-05-10T09:44:10;17.90;90.30
38480;DHT22;62333;51.980;5.934;2023-05-10T09:46:35;17.90;90.10
38480;DHT22;62333;51.980;5.934;2023-05-10T09:49:02;17.90;90.00
38480;DHT22;62333;51.980;5.934;2023-05-10T09:51:27;18.00;89.70
38480;DHT22;62333;51.980;5.934;2023-05-10T09:54:13;18.00;89.60
38480;DHT22;62333;51.980;5.934;2023-05-10T09:56:39;18.10;89.40
38480;DHT22;62333;51.980;5.934;2023-05-10T09:59:07;18.10;89.00
38480;DHT22;62333;51.980;5.934;2023-05-10T10:01:34;18.10;88.80
38480;DHT22;62333;51.980;5.934;2023-05-10T10:04:06;18.10;88.60
38480;DHT22;62333;51.980;5.934;2023-05-10T10:06:39;18.20;88.50
38480;DHT22;62333;51.980;5.934;2023-05-10T10:09:09;18.20;88.30
38480;DHT22;62333;51.980;5.934;2023-05-10T10:11:38;18.30;88.30
38480;DHT22;62333;51.980;5.934;2023-05-10T10:14:05;18.30;88.20
38480;DHT22;62333;51.980;5.934;2023-05-10T10:16:31;18.30;88.10
38480;DHT22;62333;51.980;5.934;2023-05-10T10:18:57;18.40;87.80
38480;DHT22;62333;51.980;5.934;2023-05-10T10:21:23;18.30;87.40
38480;DHT22;62333;51.980;5.934;2023-05-10T10:23:49;18.30;87.20
38480;DHT22;62333;51.980;5.934;2023-05-10T10:26:17;18.20;87.10
38480;DHT22;62333;51.980;5.934;2023-05-10T10:31:39;18.20;86.90
38480;DHT22;62333;51.980;5.934;2023-05-10T10:34:10;18.20;87.10
38480;DHT22;62333;51.980;5.934;2023-05-10T10:36:47;18.20;87.20
38480;DHT22;62333;51.980;5.934;2023-05-10T10:39:14;18.20;86.90
38480;DHT22;62333;51.980;5.934;2023-05-10T10:41:52;18.20;87.10
38480;DHT22;62333;51.980;5.934;2023-05-10T10:44:36;18.20;87.00
38480;DHT22;62333;51.980;5.934;2023-05-10T10:49:49;18.20;87.20
38480;DHT22;62333;51.980;5.934;2023-05-10T10:57:25;18.40;86.90
38480;DHT22;62333;51.980;5.934;2023-05-10T11:02:43;18.40;86.10
38480;DHT22;62333;51.980;5.934;2023-05-10T11:07:59;18.30;85.80
38480;DHT22;62333;51.980;5.934;2023-05-10T11:10:26;18.30;85.80
38480;DHT22;62333;51.980;5.934;2023-05-10T11:13:03;18.30;86.00
38480;DHT22;62333;51.980;5.934;2023-05-10T11:15:34;18.30;86.00
38480;DHT22;62333;51.980;5.934;2023-05-10T11:18:17;18.30;85.90
38480;DHT22;62333;51.980;5.934;2023-05-10T11:20:43;18.30;86.00
38480;DHT22;62333;51.980;5.934;2023-05-10T11:23:13;18.40;86.00
38480;DHT22;62333;51.980;5.934;2023-05-10T11:25:45;18.50;85.90
38480;DHT22;62333;51.980;5.934;2023-05-10T11:28:14;18.50;85.70
38480;DHT22;62333;51.980;5.934;2023-05-10T11:30:41;18.60;85.60
38480;DHT22;62333;51.980;5.934;2023-05-10T11:33:08;18.70;85.40
38480;DHT22;62333;51.980;5.934;2023-05-10T11:35:38;18.70;85.20
38480;DHT22;62333;51.980;5.934;2023-05-10T11:38:11;18.90;85.20
38480;DHT22;62333;51.980;5.934;2023-05-10T11:40:38;18.90;84.80
38480;DHT22;62333;51.980;5.934;2023-05-10T11:43:04;19.10;84.80
38480;DHT22;62333;51.980;5.934;2023-05-10T11:45:34;19.20;84.70
38480;DHT22;62333;51.980;5.934;2023-05-10T11:48:01;19.40;84.20
38480;DHT22;62333;51.980;5.934;2023-05-10T11:50:28;19.40;83.70
38480;DHT22;62333;51.980;5.934;2023-05-10T11:52:55;19.50;83.70
38480;DHT22;62333;51.980;5.934;2023-05-10T11:55:21;19.60;83.30
38480;DHT22;62333;51.980;5.934;2023-05-10T11:57:46;19.70;82.60
38480;DHT22;62333;51.980;5.934;2023-05-10T12:00:13;19.70;82.20
38480;DHT22;62333;51.980;5.934;2023-05-10T12:02:39;19.80;81.80
38480;DHT22;62333;51.980;5.934;2023-05-10T12:05:06;19.80;81.10
38480;DHT22;62333;51.980;5.934;2023-05-10T12:07:32;19.80;81.10
38480;DHT22;62333;51.980;5.934;2023-05-10T12:12:41;20.00;80.70
38480;DHT22;62333;51.980;5.934;2023-05-10T12:15:20;20.10;80.30
38480;DHT22;62333;51.980;5.934;2023-05-10T12:17:47;20.10;80.20
38480;DHT22;62333;51.980;5.934;2023-05-10T12:20:24;20.20;80.40
38480;DHT22;62333;51.980;5.934;2023-05-10T12:22:58;20.30;80.60
38480;DHT22;62333;51.980;5.934;2023-05-10T12:25:34;20.50;80.70
38480;DHT22;62333;51.980;5.934;2023-05-10T12:28:03;20.60;80.70
38480;DHT22;62333;51.980;5.934;2023-05-10T12:30:31;20.60;80.20
38480;DHT22;62333;51.980;5.934;2023-05-10T12:33:08;20.70;80.10
38480;DHT22;62333;51.980;5.934;2023-05-10T12:35:47;20.70;80.10
38480;DHT22;62333;51.980;5.934;2023-05-10T12:38:35;20.80;80.00
38480;DHT22;62333;51.980;5.934;2023-05-10T12:41:04;20.80;79.50
38480;DHT22;62333;51.980;5.934;2023-05-10T12:43:30;20.90;79.60
38480;DHT22;62333;51.980;5.934;2023-05-10T12:45:56;20.90;79.40
38480;DHT22;62333;51.980;5.934;2023-05-10T12:48:22;20.90;79.40
38480;DHT22;62333;51.980;5.934;2023-05-10T12:50:48;20.90;79.20
38480;DHT22;62333;51.980;5.934;2023-05-10T12:53:14;20.80;78.70
38480;DHT22;62333;51.980;5.934;2023-05-10T12:55:44;20.80;78.40
38480;DHT22;62333;51.980;5.934;2023-05-10T12:58:10;20.80;78.00
38480;DHT22;62333;51.980;5.934;2023-05-10T13:00:35;20.70;77.60
38480;DHT22;62333;51.980;5.934;2023-05-10T13:03:04;20.70;77.50
38480;DHT22;62333;51.980;5.934;2023-05-10T13:05:34;20.70;77.30
38480;DHT22;62333;51.980;5.934;2023-05-10T13:08:00;20.70;77.40
38480;DHT22;62333;51.980;5.934;2023-05-10T13:10:26;20.70;77.40
38480;DHT22;62333;51.980;5.934;2023-05-10T13:12:51;20.70;76.80
38480;DHT22;62333;51.980;5.934;2023-05-10T13:15:17;20.70;76.70
38480;DHT22;62333;51.980;5.934;2023-05-10T13:17:43;20.70;76.60
38480;DHT22;62333;51.980;5.934;2023-05-10T13:20:11;20.60;76.20
38480;DHT22;62333;51.980;5.934;2023-05-10T13:22:36;20.60;76.20
38480;DHT22;62333;51.980;5.934;2023-05-10T13:25:02;20.60;76.40
38480;DHT22;62333;51.980;5.934;2023-05-10T13:27:28;20.70;76.30
38480;DHT22;62333;51.980;5.934;2023-05-10T13:29:54;20.70;76.40
38480;DHT22;62333;51.980;5.934;2023-05-10T13:32:20;20.60;76.10
38480;DHT22;62333;51.980;5.934;2023-05-10T13:34:46;20.60;76.20
38480;DHT22;62333;51.980;5.934;2023-05-10T13:37:11;20.50;75.90
38480;DHT22;62333;51.980;5.934;2023-05-10T13:39:37;20.40;76.10
38480;DHT22;62333;51.980;5.934;2023-05-10T13:42:03;20.40;76.20
38480;DHT22;62333;51.980;5.934;2023-05-10T13:44:29;20.30;76.40
38480;DHT22;62333;51.980;5.934;2023-05-10T13:46:56;20.20;76.70
38480;DHT22;62333;51.980;5.934;2023-05-10T13:49:22;20.20;76.80
38480;DHT22;62333;51.980;5.934;2023-05-10T13:51:47;20.10;76.90
38480;DHT22;62333;51.980;5.934;2023-05-10T13:54:13;20.00;77.00
38480;DHT22;62333;51.980;5.934;2023-05-10T13:56:39;20.00;77.30
38480;DHT22;62333;51.980;5.934;2023-05-10T13:59:06;20.00;78.70
38480;DHT22;62333;51.980;5.934;2023-05-10T14:01:33;19.80;78.60
38480;DHT22;62333;51.980;5.934;2023-05-10T14:03:59;19.70;78.80
38480;DHT22;62333;51.980;5.934;2023-05-10T14:06:25;19.50;79.10
38480;DHT22;62333;51.980;5.934;2023-05-10T14:08:52;19.50;79.60
38480;DHT22;62333;51.980;5.934;2023-05-10T14:11:19;19.40;80.10
38480;DHT22;62333;51.980;5.934;2023-05-10T14:13:45;19.30;80.80
38480;DHT22;62333;51.980;5.934;2023-05-10T14:16:10;19.20;81.50
38480;DHT22;62333;51.980;5.934;2023-05-10T14:18:37;19.10;82.00
38480;DHT22;62333;51.980;5.934;2023-05-10T14:21:03;19.10;82.30
38480;DHT22;62333;51.980;5.934;2023-05-10T14:23:29;19.00;82.50
38480;DHT22;62333;51.980;5.934;2023-05-10T14:25:55;19.00;82.80
38480;DHT22;62333;51.980;5.934;2023-05-10T14:28:21;18.90;83.10
38480;DHT22;62333;51.980;5.934;2023-05-10T14:30:48;18.90;83.40
38480;DHT22;62333;51.980;5.934;2023-05-10T14:33:16;18.90;83.70
38480;DHT22;62333;51.980;5.934;2023-05-10T14:35:41;18.90;83.90
38480;DHT22;62333;51.980;5.934;2023-05-10T14:38:07;18.90;84.10
38480;DHT22;62333;51.980;5.934;2023-05-10T14:40:33;18.90;84.20
38480;DHT22;62333;51.980;5.934;2023-05-10T14:42:58;18.90;84.40
38480;DHT22;62333;51.980;5.934;2023-05-10T14:45:24;18.90;84.60
38480;DHT22;62333;51.980;5.934;2023-05-10T14:47:50;18.90;84.60
38480;DHT22;62333;51.980;5.934;2023-05-10T14:50:15;19.00;84.70
38480;DHT22;62333;51.980;5.934;2023-05-10T14:52:43;18.90;84.60
38480;DHT22;62333;51.980;5.934;2023-05-10T14:55:09;18.90;84.20
38480;DHT22;62333;51.980;5.934;2023-05-10T14:57:35;18.90;84.30
38480;DHT22;62333;51.980;5.934;2023-05-10T15:00:01;18.90;84.30
38480;DHT22;62333;51.980;5.934;2023-05-10T15:02:27;18.90;84.20
38480;DHT22;62333;51.980;5.934;2023-05-10T15:04:53;18.90;84.10
38480;DHT22;62333;51.980;5.934;2023-05-10T15:07:19;18.90;84.00
38480;DHT22;62333;51.980;5.934;2023-05-10T15:09:45;18.90;83.90
38480;DHT22;62333;51.980;5.934;2023-05-10T15:12:11;18.90;83.90
38480;DHT22;62333;51.980;5.934;2023-05-10T15:14:37;18.90;83.90
38480;DHT22;62333;51.980;5.934;2023-05-10T15:17:02;18.90;84.10
38480;DHT22;62333;51.980;5.934;2023-05-10T15:19:28;19.00;84.10
38480;DHT22;62333;51.980;5.934;2023-05-10T15:21:55;19.00;84.00
38480;DHT22;62333;51.980;5.934;2023-05-10T15:24:21;19.10;84.00
38480;DHT22;62333;51.980;5.934;2023-05-10T15:26:47;19.10;83.80
38480;DHT22;62333;51.980;5.934;2023-05-10T15:29:13;19.20;83.60
38480;DHT22;62333;51.980;5.934;2023-05-10T15:31:46;19.20;83.50
38480;DHT22;62333;51.980;5.934;2023-05-10T15:34:11;19.20;83.30
38480;DHT22;62333;51.980;5.934;2023-05-10T15:36:38;19.20;83.20
38480;DHT22;62333;51.980;5.934;2023-05-10T15:39:03;19.20;83.10
38480;DHT22;62333;51.980;5.934;2023-05-10T15:41:29;19.20;83.10
38480;DHT22;62333;51.980;5.934;2023-05-10T15:43:55;19.10;83.00
38480;DHT22;62333;51.980;5.934;2023-05-10T15:46:21;19.10;83.10
38480;DHT22;62333;51.980;5.934;2023-05-10T15:48:47;19.10;83.10
38480;DHT22;62333;51.980;5.934;2023-05-10T15:51:12;19.10;83.10
38480;DHT22;62333;51.980;5.934;2023-05-10T15:53:38;19.10;82.90
38480;DHT22;62333;51.980;5.934;2023-05-10T15:56:04;19.10;82.90
38480;DHT22;62333;51.980;5.934;2023-05-10T15:58:30;19.10;82.90
38480;DHT22;62333;51.980;5.934;2023-05-10T16:00:56;19.10;82.90
38480;DHT22;62333;51.980;5.934;2023-05-10T16:03:22;19.10;82.70
38480;DHT22;62333;51.980;5.934;2023-05-10T16:05:48;19.10;82.80
38480;DHT22;62333;51.980;5.934;2023-05-10T16:08:13;19.10;82.80
38480;DHT22;62333;51.980;5.934;2023-05-10T16:10:39;19.10;82.80